createdAt,value
2023-11-27T00:01:22.745Z,18.2
2023-11-27T00:11:22.886Z,18.2
2023-11-27T00:21:23.078Z,18.2
2023-11-27T00:51:23.774Z,18.2
2023-11-27T01:01:23.978Z,18.2
2023-11-27T01:21:24.309Z,18.2
2023-11-27T01:41:24.685Z,18.1
2023-11-27T01:51:24.908Z,18.1
2023-11-27T02:01:25.145Z,18.1
2023-11-27T02:11:25.281Z,18.1
2023-11-27T02:21:25.504Z,18.1
2023-11-27T02:31:25.720Z,18.1
2023-11-27T02:41:25.888Z,18.1
2023-11-27T02:51:26.078Z,18.1
2023-11-27T03:01:26.364Z,18.1
2023-11-27T03:11:26.501Z,18.1
2023-11-27T03:21:26.662Z,18.1
2023-11-27T03:31:26.931Z,18
2023-11-27T03:41:27.084Z,18
2023-11-27T03:51:27.282Z,18
2023-11-27T04:01:27.505Z,18
2023-11-27T04:11:27.709Z,18
2023-11-27T04:21:27.908Z,18
2023-11-27T04:31:28.122Z,18
2023-11-27T04:41:28.265Z,18
2023-11-27T04:51:28.506Z,18
2023-11-27T05:01:28.735Z,18
2023-11-27T05:11:28.888Z,18
2023-11-27T05:21:29.069Z,18
2023-11-27T05:31:29.445Z,18
2023-11-27T05:41:29.533Z,18
2023-11-27T05:51:29.667Z,18
2023-11-27T06:01:29.968Z,18
2023-11-27T06:11:30.085Z,17.9
2023-11-27T06:21:30.275Z,17.9
2023-11-27T06:31:30.502Z,17.9
2023-11-27T06:41:30.670Z,17.8
2023-11-27T06:51:30.881Z,17.8
2023-11-27T07:01:31.225Z,17.7
2023-11-27T07:11:31.270Z,17.7
2023-11-27T07:21:31.457Z,17.7
2023-11-27T07:31:31.697Z,17.7
2023-11-27T07:41:31.867Z,17.6
2023-11-27T07:51:32.072Z,17.6
2023-11-27T08:01:32.267Z,17.6
2023-11-27T12:01:37.102Z,17.4
2023-11-27T12:41:37.851Z,18
2023-11-27T12:51:38.059Z,18.1
2023-11-27T13:01:38.486Z,18.3
2023-11-27T13:11:38.441Z,18.4
2023-11-27T13:21:38.652Z,18.2
2023-11-27T13:31:38.940Z,18.2
2023-11-27T13:41:39.102Z,18.3
2023-11-27T13:51:39.247Z,18.3
2023-11-27T14:01:39.552Z,18.4
2023-11-27T14:11:39.698Z,18.4
2023-11-27T14:21:39.855Z,18.4
2023-11-27T14:31:40.059Z,18.4
2023-11-27T14:41:40.235Z,18.4
2023-11-27T14:51:40.983Z,18.4
2023-11-27T15:01:40.728Z,18.3
2023-11-27T15:11:40.840Z,18.3
2023-11-27T15:21:41.047Z,18.3
2023-11-27T15:31:41.379Z,18.3
2023-11-27T15:41:41.447Z,18.3
2023-11-27T15:51:43.001Z,18.3
2023-11-27T16:01:42.014Z,18.3
2023-11-27T16:11:42.066Z,18.3
2023-11-27T16:21:42.245Z,18.3
2023-11-27T16:31:42.472Z,18.3
2023-11-27T16:41:42.629Z,18.3
2023-11-27T16:51:42.841Z,18.3
2023-11-27T17:01:43.128Z,18.2
2023-11-27T17:11:43.258Z,18.2
2023-11-27T17:21:43.454Z,18.2
2023-11-27T17:31:43.655Z,18.2
2023-11-27T17:51:44.062Z,18.2
2023-11-27T18:01:44.307Z,18.2
2023-11-27T18:11:44.476Z,18.1
2023-11-27T18:21:44.640Z,18.1
2023-11-27T18:31:44.897Z,18.1
2023-11-27T18:41:45.051Z,18.1
2023-11-27T18:51:45.245Z,18.1
2023-11-27T19:01:45.512Z,18.1
2023-11-27T19:11:45.630Z,18.1
2023-11-27T19:21:45.832Z,18.1
2023-11-27T19:31:46.043Z,18.1
2023-11-27T19:41:46.226Z,18.1
2023-11-27T19:51:46.431Z,18.1
2023-11-27T20:01:46.778Z,18.1
2023-11-27T20:11:46.847Z,18.1
2023-11-27T20:21:47.021Z,18.1
2023-11-27T20:31:47.268Z,18.1
2023-11-27T20:41:47.430Z,18.1
2023-11-27T20:51:47.617Z,18.2
2023-11-27T21:01:47.845Z,18.2
2023-11-27T21:11:48.086Z,18.2
2023-11-27T21:21:48.218Z,18.2
2023-11-27T21:31:48.511Z,18.2
2023-11-27T21:41:48.647Z,18.2
2023-11-27T21:51:48.810Z,18.2
2023-11-27T22:01:49.186Z,18.2
2023-11-27T22:11:49.235Z,18.2
2023-11-27T22:21:49.427Z,18.2
2023-11-27T22:31:49.742Z,18.2
2023-11-27T22:51:50.017Z,18.3
2023-11-27T23:11:50.411Z,18.2
2023-11-27T23:21:50.610Z,18.2
2023-11-27T23:31:53.091Z,18.2
2023-11-27T23:51:51.228Z,18.3
